Cygnus Leader — 3EKK5 — position and weather

sailwx.info

Track history (hours):
 
Tides and Currents Weather Stations Pressure Air Temp Water Temp Dewpoint Dewpoint Depression Visibility Wind Speed Wind Dir Waves Ship Positions

Cygnus Leader

Last reported at 2018-Jun-07 12:25 UTC. Time now 2018-Jun-22 13:29 UTC.
Position N 34°10' W 122°08'.
Warning: this ship's position is 15 days out of date.

Length 199 m; draft 9.2 m.

Type: Ship. MMSI: 372747000.

Date/timePositionNaut miles runAvg speedWind from/ knotsBaromVisibWave heightAir tempDewpointWater temp
2018-Jun-07 12:25N 34°10' W 122°08'713.8
2018-Jun-07 11:56N 34°11' W 122°00'614.2
2018-Jun-07 11:30N 34°13' W 121°53'714.4
2018-Jun-07 11:01N 34°15' W 121°45'714.1
2018-Jun-07 10:30N 34°17' W 121°37'713.9
2018-Jun-07 10:00N 34°18' W 121°28'714.2
2018-Jun-07 09:30N 34°20' W 121°20'714.1
2018-Jun-07 09:00N 34°22' W 121°12'714.0
2018-Jun-07 08:30N 34°24' W 121°04'714.4
2018-Jun-07 08:00N 34°25' W 120°55'714.0
2018-Jun-07 07:30N 34°25' W 120°47'713.9
2018-Jun-07 07:00N 34°23' W 120°38'714.1
2018-Jun-07 06:30N 34°21' W 120°30'714.3
2018-Jun-07 06:00N 34°19' W 120°22'714.6
2018-Jun-07 05:30N 34°17' W 120°13'714.1
2018-Jun-07 05:00N 34°16' W 120°05'713.9
2018-Jun-07 04:29N 34°14' W 119°57'613.5
2018-Jun-07 04:00N 34°12' W 119°49'913.8
2018-Jun-07 03:20N 34°10' W 119°38'513.9
2018-Jun-07 03:00N 34°08' W 119°33'713.6
2018-Jun-07 02:30N 34°07' W 119°25'713.7
2018-Jun-07 02:00N 34°05' W 119°17'510.3
2018-Jun-07 01:30N 34°09' W 119°13'1 0.9
2018-Jun-07 00:52N 34°09' W 119°12'0 0.0
2018-Jun-07 00:16N 34°09' W 119°12'0 0.0
2018-Jun-06 23:52N 34°09' W 119°12'0 0.0
2018-Jun-06 23:28N 34°09' W 119°12'0 0.0
2018-Jun-06 21:55N 34°09' W 119°12'0 0.0
2018-Jun-06 19:01N 34°09' W 119°12'0 0.0
2018-Jun-06 16:25N 34°09' W 119°12'0 0.0
2018-Jun-06 14:28N 34°09' W 119°12'0 0.0
2018-Jun-06 13:04N 34°09' W 119°12'0 0.0
2018-Jun-06 12:37N 34°09' W 119°12'0 0.0
2018-Jun-06 12:16N 34°09' W 119°12'0 0.0
2018-Jun-06 11:58N 34°09' W 119°12'0 0.0
2018-Jun-06 11:29N 34°09' W 119°12'2 3.6
2018-Jun-06 10:59N 34°08' W 119°14'3 6.1
2018-Jun-06 10:30N 34°05' W 119°16'3 5.5
2018-Jun-06 09:58N 34°03' W 119°13'3 5.1
2018-Jun-06 09:28N 34°02' W 119°10'3 6.0
2018-Jun-06 09:00N 34°01' W 119°07'4 9.0
2018-Jun-06 08:30N 33°57' W 119°10'6 9.6
2018-Jun-06 07:50N 33°51' W 119°05'4 9.6
2018-Jun-06 07:28N 33°49' W 119°03'5 9.4
2018-Jun-06 06:58N 33°45' W 118°59'4 9.8
2018-Jun-06 06:30N 33°41' W 118°56'510.0
2018-Jun-06 06:00N 33°37' W 118°52'5 9.8
2018-Jun-06 05:30N 33°34' W 118°49'5 9.5
2018-Jun-06 05:00N 33°30' W 118°45'5 9.7
2018-Jun-06 04:30N 33°26' W 118°42'5 9.6
2018-Jun-06 03:59N 33°22' W 118°39'5 9.8
2018-Jun-06 03:30N 33°18' W 118°35'510.1
2018-Jun-06 02:59N 33°14' W 118°31'510.1
2018-Jun-06 02:27N 33°10' W 118°26'6 9.4
2018-Jun-06 01:47N 33°05' W 118°22'3 9.6
2018-Jun-06 01:29N 33°03' W 118°20'610.0
2018-Jun-06 00:55N 32°58' W 118°16'4 9.9
2018-Jun-06 00:30N 32°55' W 118°13'6 9.7
2018-Jun-05 23:56N 32°51' W 118°09'510.7
2018-Jun-05 23:30N 32°47' W 118°06'4 7.8
2018-Jun-05 23:00N 32°44' W 118°03'713.6
2018-Jun-05 22:30N 32°39' W 117°58'713.4
2018-Jun-05 22:01N 32°33' W 117°53'815.4
2018-Jun-05 21:30N 32°26' W 117°50'815.7
2018-Jun-05 21:00N 32°19' W 117°47'815.8
2018-Jun-05 20:29N 32°11' W 117°44'816.6
2018-Jun-05 20:00N 32°03' W 117°41'5316.9
2018-Jun-05 16:52N 31°12' W 117°23'1817.1
2018-Jun-05 15:48N 30°55' W 117°17'9216.8
2018-Jun-05 10:20N 29°27' W 116°46'1016.7
2018-Jun-05 09:45N 29°18' W 116°42'716.4
2018-Jun-05 09:19N 29°11' W 116°40'816.5
2018-Jun-05 08:50N 29°04' W 116°37'14315.8
2018-Jun-04 23:46N 26°56' W 115°23'516.0
2018-Jun-04 23:28N 26°53' W 115°20'815.9
2018-Jun-04 23:00N 26°46' W 115°15'1315.7
2018-Jun-04 22:10N 26°36' W 115°06'215.7
2018-Jun-04 22:01N 26°34' W 115°05'  
2018-May-29 14:54N 09°13' W 079°55'3 6.6
2018-May-29 14:30N 09°15' W 079°55'1 1.8
2018-May-29 14:00N 09°16' W 079°55'0 0.3
2018-May-29 13:30N 09°16' W 079°55'0 0.3
2018-May-29 12:58N 09°17' W 079°55'0 0.6
2018-May-29 12:30N 09°17' W 079°55'1 2.3
2018-May-29 12:00N 09°18' W 079°55'3 6.0
2018-May-29 11:30N 09°21' W 079°55'3 5.6
2018-May-29 11:00N 09°24' W 079°55'2 3.1
2018-May-29 10:29N 09°25' W 079°56'0 0.1
2018-May-29 09:56N 09°25' W 079°56'0 0.2
2018-May-29 09:29N 09°25' W 079°56'0 0.0
2018-May-29 08:59N 09°25' W 079°56'0 0.0
2018-May-29 08:26N 09°25' W 079°56'0 0.0
2018-May-29 07:59N 09°25' W 079°56'0 0.0
2018-May-29 07:26N 09°25' W 079°56'0 0.0
2018-May-29 06:59N 09°25' W 079°56'0 0.0
2018-May-29 06:23N 09°25' W 079°56'0 0.0
2018-May-29 05:59N 09°25' W 079°56'0 0.0
2018-May-29 05:29N 09°25' W 079°56'0 0.0
2018-May-29 04:59N 09°25' W 079°56'0 0.0
2018-May-29 04:29N 09°25' W 079°56'0 0.0
2018-May-29 03:59N 09°25' W 079°56'0 0.0
2018-May-29 03:29N 09°25' W 079°56'0 0.0
2018-May-29 02:56N 09°25' W 079°56'0 0.0
2018-May-29 02:29N 09°25' W 079°56'0 0.0
2018-May-29 01:59N 09°25' W 079°56'0 0.0
2018-May-29 01:26N 09°25' W 079°56'0 0.0
2018-May-29 00:59N 09°25' W 079°56'0 0.0
2018-May-29 00:29N 09°25' W 079°56'0 0.0
2018-May-28 23:53N 09°25' W 079°56'0 0.0
2018-May-28 23:29N 09°25' W 079°56'0 0.0
2018-May-28 22:59N 09°25' W 079°56'0 0.0
2018-May-28 22:29N 09°25' W 079°56'0 0.0
2018-May-28 21:59N 09°25' W 079°56'0 0.0
2018-May-28 21:29N 09°25' W 079°56'0 0.0
2018-May-28 20:59N 09°25' W 079°56'0 0.0
2018-May-28 20:29N 09°25' W 079°56'0 0.0
2018-May-28 19:59N 09°25' W 079°56'0 0.0
2018-May-28 19:29N 09°25' W 079°56'0 0.0
2018-May-28 18:59N 09°25' W 079°56'0 0.0
2018-May-28 18:29N 09°25' W 079°56'0 0.0
2018-May-28 17:59N 09°25' W 079°56'0 0.0
2018-May-28 17:29N 09°25' W 079°56'0 0.0
2018-May-28 16:59N 09°25' W 079°56'0 0.0
2018-May-28 16:30N 09°25' W 079°56'0 0.0
2018-May-28 16:00N 09°25' W 079°56'0 0.1
2018-May-28 15:29N 09°25' W 079°56'1 2.8
2018-May-28 15:00N 09°26' W 079°56'3 6.0
2018-May-28 14:30N 09°29' W 079°54'  
Track history (hours):
 
Tides and Currents Weather Stations Pressure Air Temp Water Temp Dewpoint Dewpoint Depression Visibility Wind Speed Wind Dir Waves Ship Positions

Cygnus Leader

Last reported at 2018-Jun-07 12:25 UTC. Time now 2018-Jun-22 13:29 UTC.
Position N 34°10' W 122°08'.
Warning: this ship's position is 15 days out of date.

Length 199 m; draft 9.2 m.

Type: Ship. MMSI: 372747000.

Date/timePositionNaut miles runAvg speedWind from/ knotsBaromVisibWave heightAir tempDewpointWater temp
2018-Jun-07 12:25N 34°10' W 122°08'713.8
2018-Jun-07 11:56N 34°11' W 122°00'614.2
2018-Jun-07 11:30N 34°13' W 121°53'714.4
2018-Jun-07 11:01N 34°15' W 121°45'714.1
2018-Jun-07 10:30N 34°17' W 121°37'713.9
2018-Jun-07 10:00N 34°18' W 121°28'714.2
2018-Jun-07 09:30N 34°20' W 121°20'714.1
2018-Jun-07 09:00N 34°22' W 121°12'714.0
2018-Jun-07 08:30N 34°24' W 121°04'714.4
2018-Jun-07 08:00N 34°25' W 120°55'714.0
2018-Jun-07 07:30N 34°25' W 120°47'713.9
2018-Jun-07 07:00N 34°23' W 120°38'714.1
2018-Jun-07 06:30N 34°21' W 120°30'714.3
2018-Jun-07 06:00N 34°19' W 120°22'714.6
2018-Jun-07 05:30N 34°17' W 120°13'714.1
2018-Jun-07 05:00N 34°16' W 120°05'713.9
2018-Jun-07 04:29N 34°14' W 119°57'613.5
2018-Jun-07 04:00N 34°12' W 119°49'913.8
2018-Jun-07 03:20N 34°10' W 119°38'513.9
2018-Jun-07 03:00N 34°08' W 119°33'713.6
2018-Jun-07 02:30N 34°07' W 119°25'713.7
2018-Jun-07 02:00N 34°05' W 119°17'510.3
2018-Jun-07 01:30N 34°09' W 119°13'1 0.9
2018-Jun-07 00:52N 34°09' W 119°12'0 0.0
2018-Jun-07 00:16N 34°09' W 119°12'0 0.0
2018-Jun-06 23:52N 34°09' W 119°12'0 0.0
2018-Jun-06 23:28N 34°09' W 119°12'0 0.0
2018-Jun-06 21:55N 34°09' W 119°12'0 0.0
2018-Jun-06 19:01N 34°09' W 119°12'0 0.0
2018-Jun-06 16:25N 34°09' W 119°12'0 0.0
2018-Jun-06 14:28N 34°09' W 119°12'0 0.0
2018-Jun-06 13:04N 34°09' W 119°12'0 0.0
2018-Jun-06 12:37N 34°09' W 119°12'0 0.0
2018-Jun-06 12:16N 34°09' W 119°12'0 0.0
2018-Jun-06 11:58N 34°09' W 119°12'0 0.0
2018-Jun-06 11:29N 34°09' W 119°12'2 3.6
2018-Jun-06 10:59N 34°08' W 119°14'3 6.1
2018-Jun-06 10:30N 34°05' W 119°16'3 5.5
2018-Jun-06 09:58N 34°03' W 119°13'3 5.1
2018-Jun-06 09:28N 34°02' W 119°10'3 6.0
2018-Jun-06 09:00N 34°01' W 119°07'4 9.0
2018-Jun-06 08:30N 33°57' W 119°10'6 9.6
2018-Jun-06 07:50N 33°51' W 119°05'4 9.6
2018-Jun-06 07:28N 33°49' W 119°03'5 9.4
2018-Jun-06 06:58N 33°45' W 118°59'4 9.8
2018-Jun-06 06:30N 33°41' W 118°56'510.0
2018-Jun-06 06:00N 33°37' W 118°52'5 9.8
2018-Jun-06 05:30N 33°34' W 118°49'5 9.5
2018-Jun-06 05:00N 33°30' W 118°45'5 9.7
2018-Jun-06 04:30N 33°26' W 118°42'5 9.6
2018-Jun-06 03:59N 33°22' W 118°39'5 9.8
2018-Jun-06 03:30N 33°18' W 118°35'510.1
2018-Jun-06 02:59N 33°14' W 118°31'510.1
2018-Jun-06 02:27N 33°10' W 118°26'6 9.4
2018-Jun-06 01:47N 33°05' W 118°22'3 9.6
2018-Jun-06 01:29N 33°03' W 118°20'610.0
2018-Jun-06 00:55N 32°58' W 118°16'4 9.9
2018-Jun-06 00:30N 32°55' W 118°13'6 9.7
2018-Jun-05 23:56N 32°51' W 118°09'510.7
2018-Jun-05 23:30N 32°47' W 118°06'4 7.8
2018-Jun-05 23:00N 32°44' W 118°03'713.6
2018-Jun-05 22:30N 32°39' W 117°58'713.4
2018-Jun-05 22:01N 32°33' W 117°53'815.4
2018-Jun-05 21:30N 32°26' W 117°50'815.7
2018-Jun-05 21:00N 32°19' W 117°47'815.8
2018-Jun-05 20:29N 32°11' W 117°44'816.6
2018-Jun-05 20:00N 32°03' W 117°41'5316.9
2018-Jun-05 16:52N 31°12' W 117°23'1817.1
2018-Jun-05 15:48N 30°55' W 117°17'9216.8
2018-Jun-05 10:20N 29°27' W 116°46'1016.7
2018-Jun-05 09:45N 29°18' W 116°42'716.4
2018-Jun-05 09:19N 29°11' W 116°40'816.5
2018-Jun-05 08:50N 29°04' W 116°37'14315.8
2018-Jun-04 23:46N 26°56' W 115°23'516.0
2018-Jun-04 23:28N 26°53' W 115°20'815.9
2018-Jun-04 23:00N 26°46' W 115°15'1315.7
2018-Jun-04 22:10N 26°36' W 115°06'215.7
2018-Jun-04 22:01N 26°34' W 115°05'  
2018-May-29 14:54N 09°13' W 079°55'3 6.6
2018-May-29 14:30N 09°15' W 079°55'1 1.8
2018-May-29 14:00N 09°16' W 079°55'0 0.3
2018-May-29 13:30N 09°16' W 079°55'0 0.3
2018-May-29 12:58N 09°17' W 079°55'0 0.6
2018-May-29 12:30N 09°17' W 079°55'1 2.3
2018-May-29 12:00N 09°18' W 079°55'3 6.0
2018-May-29 11:30N 09°21' W 079°55'3 5.6
2018-May-29 11:00N 09°24' W 079°55'2 3.1
2018-May-29 10:29N 09°25' W 079°56'0 0.1
2018-May-29 09:56N 09°25' W 079°56'0 0.2
2018-May-29 09:29N 09°25' W 079°56'0 0.0
2018-May-29 08:59N 09°25' W 079°56'0 0.0
2018-May-29 08:26N 09°25' W 079°56'0 0.0
2018-May-29 07:59N 09°25' W 079°56'0 0.0
2018-May-29 07:26N 09°25' W 079°56'0 0.0
2018-May-29 06:59N 09°25' W 079°56'0 0.0
2018-May-29 06:23N 09°25' W 079°56'0 0.0
2018-May-29 05:59N 09°25' W 079°56'0 0.0
2018-May-29 05:29N 09°25' W 079°56'0 0.0
2018-May-29 04:59N 09°25' W 079°56'0 0.0
2018-May-29 04:29N 09°25' W 079°56'0 0.0
2018-May-29 03:59N 09°25' W 079°56'0 0.0
2018-May-29 03:29N 09°25' W 079°56'0 0.0
2018-May-29 02:56N 09°25' W 079°56'0 0.0
2018-May-29 02:29N 09°25' W 079°56'0 0.0
2018-May-29 01:59N 09°25' W 079°56'0 0.0
2018-May-29 01:26N 09°25' W 079°56'0 0.0
2018-May-29 00:59N 09°25' W 079°56'0 0.0
2018-May-29 00:29N 09°25' W 079°56'0 0.0
2018-May-28 23:53N 09°25' W 079°56'0 0.0
2018-May-28 23:29N 09°25' W 079°56'0 0.0
2018-May-28 22:59N 09°25' W 079°56'0 0.0
2018-May-28 22:29N 09°25' W 079°56'0 0.0
2018-May-28 21:59N 09°25' W 079°56'0 0.0
2018-May-28 21:29N 09°25' W 079°56'0 0.0
2018-May-28 20:59N 09°25' W 079°56'0 0.0
2018-May-28 20:29N 09°25' W 079°56'0 0.0
2018-May-28 19:59N 09°25' W 079°56'0 0.0
2018-May-28 19:29N 09°25' W 079°56'0 0.0
2018-May-28 18:59N 09°25' W 079°56'0 0.0
2018-May-28 18:29N 09°25' W 079°56'0 0.0
2018-May-28 17:59N 09°25' W 079°56'0 0.0
2018-May-28 17:29N 09°25' W 079°56'0 0.0
2018-May-28 16:59N 09°25' W 079°56'0 0.0
2018-May-28 16:30N 09°25' W 079°56'0 0.0
2018-May-28 16:00N 09°25' W 079°56'0 0.1
2018-May-28 15:29N 09°25' W 079°56'1 2.8
2018-May-28 15:00N 09°26' W 079°56'3 6.0
2018-May-28 14:30N 09°29' W 079°54'  

Dump ship's entire track history